sensor_id;sensor_type;location;lat;lon;timestamp;P1;durP1;ratioP1;P2;durP2;ratioP2
25854;SDS011;13680;49.936;11.344;2023-07-13T00:00:52;2.33;;;1.67;;
25854;SDS011;13680;49.936;11.344;2023-07-13T00:03:17;1.88;;;1.55;;
25854;SDS011;13680;49.936;11.344;2023-07-13T00:05:43;3.28;;;1.58;;
25854;SDS011;13680;49.936;11.344;2023-07-13T00:08:08;3.40;;;1.67;;
25854;SDS011;13680;49.936;11.344;2023-07-13T00:10:39;5.38;;;1.50;;
25854;SDS011;13680;49.936;11.344;2023-07-13T00:13:06;3.15;;;1.70;;
25854;SDS011;13680;49.936;11.344;2023-07-13T00:15:32;2.75;;;1.70;;
25854;SDS011;13680;49.936;11.344;2023-07-13T00:17:57;4.50;;;1.70;;
25854;SDS011;13680;49.936;11.344;2023-07-13T00:20:23;4.75;;;1.88;;
25854;SDS011;13680;49.936;11.344;2023-07-13T00:22:50;3.03;;;1.80;;
25854;SDS011;13680;49.936;11.344;2023-07-13T00:25:19;2.03;;;1.50;;
25854;SDS011;13680;49.936;11.344;2023-07-13T00:27:46;2.95;;;1.80;;
25854;SDS011;13680;49.936;11.344;2023-07-13T00:30:14;3.20;;;1.60;;
25854;SDS011;13680;49.936;11.344;2023-07-13T00:32:40;3.47;;;1.70;;
25854;SDS011;13680;49.936;11.344;2023-07-13T00:35:06;2.45;;;1.35;;
25854;SDS011;13680;49.936;11.344;2023-07-13T00:37:32;6.88;;;1.65;;
25854;SDS011;13680;49.936;11.344;2023-07-13T00:39:58;4.13;;;1.50;;
25854;SDS011;13680;49.936;11.344;2023-07-13T00:42:24;2.33;;;1.58;;
25854;SDS011;13680;49.936;11.344;2023-07-13T00:47:36;4.28;;;1.63;;
25854;SDS011;13680;49.936;11.344;2023-07-13T00:50:02;3.55;;;1.60;;
25854;SDS011;13680;49.936;11.344;2023-07-13T00:52:31;4.03;;;1.45;;
25854;SDS011;13680;49.936;11.344;2023-07-13T00:54:57;3.28;;;1.80;;
25854;SDS011;13680;49.936;11.344;2023-07-13T00:57:23;4.60;;;1.83;;
25854;SDS011;13680;49.936;11.344;2023-07-13T00:59:50;2.88;;;1.52;;
25854;SDS011;13680;49.936;11.344;2023-07-13T01:02:19;3.38;;;1.88;;
25854;SDS011;13680;49.936;11.344;2023-07-13T01:04:44;3.10;;;1.48;;
25854;SDS011;13680;49.936;11.344;2023-07-13T01:07:10;2.60;;;1.83;;
25854;SDS011;13680;49.936;11.344;2023-07-13T01:09:37;2.72;;;1.55;;
25854;SDS011;13680;49.936;11.344;2023-07-13T01:12:02;2.17;;;1.50;;
25854;SDS011;13680;49.936;11.344;2023-07-13T01:14:28;2.15;;;1.40;;
25854;SDS011;13680;49.936;11.344;2023-07-13T01:16:53;2.47;;;1.60;;
25854;SDS011;13680;49.936;11.344;2023-07-13T01:19:33;2.35;;;1.50;;
25854;SDS011;13680;49.936;11.344;2023-07-13T01:22:06;3.38;;;1.95;;
25854;SDS011;13680;49.936;11.344;2023-07-13T01:24:43;4.18;;;1.88;;
25854;SDS011;13680;49.936;11.344;2023-07-13T01:27:11;2.38;;;1.60;;
25854;SDS011;13680;49.936;11.344;2023-07-13T01:29:39;2.85;;;1.60;;
25854;SDS011;13680;49.936;11.344;2023-07-13T01:32:10;6.57;;;1.85;;
25854;SDS011;13680;49.936;11.344;2023-07-13T01:34:38;2.97;;;1.85;;
25854;SDS011;13680;49.936;11.344;2023-07-13T01:37:07;3.90;;;1.67;;
25854;SDS011;13680;49.936;11.344;2023-07-13T01:39:33;2.08;;;1.60;;
25854;SDS011;13680;49.936;11.344;2023-07-13T01:41:59;4.82;;;2.00;;
25854;SDS011;13680;49.936;11.344;2023-07-13T01:44:24;4.38;;;1.73;;
25854;SDS011;13680;49.936;11.344;2023-07-13T01:46:50;4.75;;;1.55;;
25854;SDS011;13680;49.936;11.344;2023-07-13T01:49:16;4.38;;;1.60;;
25854;SDS011;13680;49.936;11.344;2023-07-13T01:51:41;6.85;;;1.90;;
25854;SDS011;13680;49.936;11.344;2023-07-13T01:54:06;5.55;;;1.90;;
25854;SDS011;13680;49.936;11.344;2023-07-13T01:56:32;2.50;;;1.77;;
25854;SDS011;13680;49.936;11.344;2023-07-13T01:58:57;6.15;;;2.03;;
25854;SDS011;13680;49.936;11.344;2023-07-13T02:01:22;4.07;;;1.60;;
25854;SDS011;13680;49.936;11.344;2023-07-13T02:03:48;2.72;;;1.83;;
25854;SDS011;13680;49.936;11.344;2023-07-13T02:06:13;3.28;;;1.85;;
25854;SDS011;13680;49.936;11.344;2023-07-13T02:08:39;4.85;;;2.05;;
25854;SDS011;13680;49.936;11.344;2023-07-13T02:11:05;2.95;;;1.50;;
25854;SDS011;13680;49.936;11.344;2023-07-13T02:13:30;2.60;;;2.05;;
25854;SDS011;13680;49.936;11.344;2023-07-13T02:15:55;2.33;;;1.70;;
25854;SDS011;13680;49.936;11.344;2023-07-13T02:18:21;3.42;;;1.70;;
25854;SDS011;13680;49.936;11.344;2023-07-13T02:20:46;4.32;;;2.08;;
25854;SDS011;13680;49.936;11.344;2023-07-13T02:23:11;4.70;;;2.05;;
25854;SDS011;13680;49.936;11.344;2023-07-13T02:25:37;4.60;;;1.88;;
25854;SDS011;13680;49.936;11.344;2023-07-13T02:28:02;3.67;;;2.05;;
25854;SDS011;13680;49.936;11.344;2023-07-13T02:30:28;3.25;;;2.25;;
25854;SDS011;13680;49.936;11.344;2023-07-13T02:32:55;4.90;;;2.20;;
25854;SDS011;13680;49.936;11.344;2023-07-13T02:35:21;2.78;;;1.95;;
25854;SDS011;13680;49.936;11.344;2023-07-13T02:37:46;3.17;;;1.88;;
25854;SDS011;13680;49.936;11.344;2023-07-13T02:40:11;2.92;;;1.90;;
25854;SDS011;13680;49.936;11.344;2023-07-13T02:42:37;3.53;;;1.70;;
25854;SDS011;13680;49.936;11.344;2023-07-13T02:45:02;3.13;;;1.95;;
25854;SDS011;13680;49.936;11.344;2023-07-13T02:47:28;7.82;;;2.28;;
25854;SDS011;13680;49.936;11.344;2023-07-13T02:49:53;3.25;;;1.70;;
25854;SDS011;13680;49.936;11.344;2023-07-13T02:52:19;4.22;;;1.65;;
25854;SDS011;13680;49.936;11.344;2023-07-13T02:54:44;1.80;;;1.52;;
25854;SDS011;13680;49.936;11.344;2023-07-13T02:57:10;2.90;;;1.80;;
25854;SDS011;13680;49.936;11.344;2023-07-13T02:59:35;5.10;;;2.13;;
25854;SDS011;13680;49.936;11.344;2023-07-13T03:02:01;2.97;;;1.60;;
25854;SDS011;13680;49.936;11.344;2023-07-13T03:04:27;5.40;;;2.50;;
25854;SDS011;13680;49.936;11.344;2023-07-13T03:06:52;3.47;;;1.58;;
25854;SDS011;13680;49.936;11.344;2023-07-13T03:09:17;5.00;;;2.15;;
25854;SDS011;13680;49.936;11.344;2023-07-13T03:11:43;2.97;;;1.83;;
25854;SDS011;13680;49.936;11.344;2023-07-13T03:14:08;2.63;;;1.48;;
25854;SDS011;13680;49.936;11.344;2023-07-13T03:16:33;2.83;;;1.70;;
25854;SDS011;13680;49.936;11.344;2023-07-13T03:18:59;2.30;;;1.70;;
25854;SDS011;13680;49.936;11.344;2023-07-13T03:21:24;2.60;;;1.67;;
25854;SDS011;13680;49.936;11.344;2023-07-13T03:23:49;5.93;;;2.00;;
25854;SDS011;13680;49.936;11.344;2023-07-13T03:26:16;2.28;;;1.50;;
25854;SDS011;13680;49.936;11.344;2023-07-13T03:28:43;4.55;;;1.77;;
25854;SDS011;13680;49.936;11.344;2023-07-13T03:31:10;3.67;;;2.15;;
25854;SDS011;13680;49.936;11.344;2023-07-13T03:33:38;3.90;;;2.05;;
25854;SDS011;13680;49.936;11.344;2023-07-13T03:36:04;4.45;;;2.00;;
25854;SDS011;13680;49.936;11.344;2023-07-13T03:38:31;3.20;;;1.85;;
25854;SDS011;13680;49.936;11.344;2023-07-13T03:40:57;3.45;;;2.20;;
25854;SDS011;13680;49.936;11.344;2023-07-13T03:43:23;3.53;;;1.80;;
25854;SDS011;13680;49.936;11.344;2023-07-13T03:45:48;3.67;;;2.03;;
25854;SDS011;13680;49.936;11.344;2023-07-13T03:48:13;5.75;;;2.40;;
25854;SDS011;13680;49.936;11.344;2023-07-13T03:50:39;5.10;;;2.17;;
25854;SDS011;13680;49.936;11.344;2023-07-13T03:53:05;5.75;;;2.45;;
25854;SDS011;13680;49.936;11.344;2023-07-13T03:55:30;5.63;;;2.50;;
25854;SDS011;13680;49.936;11.344;2023-07-13T03:57:59;4.20;;;2.25;;
25854;SDS011;13680;49.936;11.344;2023-07-13T04:00:26;2.70;;;1.98;;
25854;SDS011;13680;49.936;11.344;2023-07-13T04:02:51;3.83;;;2.05;;
25854;SDS011;13680;49.936;11.344;2023-07-13T04:05:16;3.83;;;1.90;;
25854;SDS011;13680;49.936;11.344;2023-07-13T04:07:42;9.07;;;2.40;;
25854;SDS011;13680;49.936;11.344;2023-07-13T04:10:07;7.18;;;2.50;;
25854;SDS011;13680;49.936;11.344;2023-07-13T04:12:33;5.47;;;2.00;;
25854;SDS011;13680;49.936;11.344;2023-07-13T04:14:58;3.90;;;2.30;;
25854;SDS011;13680;49.936;11.344;2023-07-13T04:17:24;4.13;;;2.03;;
25854;SDS011;13680;49.936;11.344;2023-07-13T04:19:49;3.28;;;2.22;;
25854;SDS011;13680;49.936;11.344;2023-07-13T04:22:14;5.60;;;2.28;;
25854;SDS011;13680;49.936;11.344;2023-07-13T04:24:40;6.00;;;2.33;;
25854;SDS011;13680;49.936;11.344;2023-07-13T04:27:05;8.63;;;2.65;;
25854;SDS011;13680;49.936;11.344;2023-07-13T04:29:31;5.22;;;2.20;;
25854;SDS011;13680;49.936;11.344;2023-07-13T04:31:57;6.45;;;2.45;;
25854;SDS011;13680;49.936;11.344;2023-07-13T04:34:22;4.97;;;2.35;;
25854;SDS011;13680;49.936;11.344;2023-07-13T04:36:49;5.93;;;2.30;;
25854;SDS011;13680;49.936;11.344;2023-07-13T04:39:15;3.42;;;2.10;;
25854;SDS011;13680;49.936;11.344;2023-07-13T04:41:40;5.05;;;2.45;;
25854;SDS011;13680;49.936;11.344;2023-07-13T04:44:05;5.35;;;2.05;;
25854;SDS011;13680;49.936;11.344;2023-07-13T04:46:31;6.05;;;1.90;;
25854;SDS011;13680;49.936;11.344;2023-07-13T04:48:56;4.03;;;2.08;;
25854;SDS011;13680;49.936;11.344;2023-07-13T04:51:22;4.68;;;1.98;;
25854;SDS011;13680;49.936;11.344;2023-07-13T04:53:48;3.08;;;1.75;;
25854;SDS011;13680;49.936;11.344;2023-07-13T04:56:14;5.00;;;1.80;;
25854;SDS011;13680;49.936;11.344;2023-07-13T04:58:39;5.18;;;2.53;;
25854;SDS011;13680;49.936;11.344;2023-07-13T05:01:05;3.80;;;1.80;;
25854;SDS011;13680;49.936;11.344;2023-07-13T05:03:31;4.80;;;1.92;;
25854;SDS011;13680;49.936;11.344;2023-07-13T05:05:57;4.10;;;1.85;;
25854;SDS011;13680;49.936;11.344;2023-07-13T05:08:25;4.53;;;2.00;;
25854;SDS011;13680;49.936;11.344;2023-07-13T05:10:51;4.38;;;1.80;;
25854;SDS011;13680;49.936;11.344;2023-07-13T05:13:17;5.80;;;1.92;;
25854;SDS011;13680;49.936;11.344;2023-07-13T05:15:42;2.92;;;1.92;;
25854;SDS011;13680;49.936;11.344;2023-07-13T05:18:08;4.70;;;1.70;;
25854;SDS011;13680;49.936;11.344;2023-07-13T05:20:33;8.98;;;1.90;;
25854;SDS011;13680;49.936;11.344;2023-07-13T05:22:58;4.20;;;1.70;;
25854;SDS011;13680;49.936;11.344;2023-07-13T05:25:24;4.50;;;1.98;;
25854;SDS011;13680;49.936;11.344;2023-07-13T05:27:49;6.43;;;1.38;;
25854;SDS011;13680;49.936;11.344;2023-07-13T05:30:14;6.90;;;1.30;;
25854;SDS011;13680;49.936;11.344;2023-07-13T05:32:40;5.00;;;1.20;;
25854;SDS011;13680;49.936;11.344;2023-07-13T05:35:06;3.63;;;1.10;;
25854;SDS011;13680;49.936;11.344;2023-07-13T05:37:31;4.32;;;1.35;;
25854;SDS011;13680;49.936;11.344;2023-07-13T05:39:57;3.10;;;1.10;;
25854;SDS011;13680;49.936;11.344;2023-07-13T05:42:22;2.20;;;1.10;;
25854;SDS011;13680;49.936;11.344;2023-07-13T05:44:47;5.22;;;1.27;;
25854;SDS011;13680;49.936;11.344;2023-07-13T05:47:13;3.17;;;1.27;;
25854;SDS011;13680;49.936;11.344;2023-07-13T05:49:39;9.93;;;1.80;;
25854;SDS011;13680;49.936;11.344;2023-07-13T05:52:05;3.83;;;1.20;;
25854;SDS011;13680;49.936;11.344;2023-07-13T05:54:31;5.10;;;1.17;;
25854;SDS011;13680;49.936;11.344;2023-07-13T05:56:56;1.42;;;0.82;;
25854;SDS011;13680;49.936;11.344;2023-07-13T05:59:21;3.10;;;1.10;;
25854;SDS011;13680;49.936;11.344;2023-07-13T06:01:46;3.72;;;1.20;;
25854;SDS011;13680;49.936;11.344;2023-07-13T06:04:12;2.67;;;1.00;;
25854;SDS011;13680;49.936;11.344;2023-07-13T06:06:37;2.67;;;0.80;;
25854;SDS011;13680;49.936;11.344;2023-07-13T06:09:02;1.65;;;0.77;;
25854;SDS011;13680;49.936;11.344;2023-07-13T06:11:28;3.75;;;1.23;;
25854;SDS011;13680;49.936;11.344;2023-07-13T06:13:54;4.50;;;1.27;;
25854;SDS011;13680;49.936;11.344;2023-07-13T06:16:21;2.95;;;0.95;;
25854;SDS011;13680;49.936;11.344;2023-07-13T06:18:47;4.22;;;1.13;;
25854;SDS011;13680;49.936;11.344;2023-07-13T06:21:14;4.28;;;1.58;;
25854;SDS011;13680;49.936;11.344;2023-07-13T06:23:42;2.38;;;1.00;;
25854;SDS011;13680;49.936;11.344;2023-07-13T06:26:07;4.07;;;1.20;;
25854;SDS011;13680;49.936;11.344;2023-07-13T06:28:33;7.60;;;1.70;;
25854;SDS011;13680;49.936;11.344;2023-07-13T06:30:59;3.95;;;1.08;;
25854;SDS011;13680;49.936;11.344;2023-07-13T06:33:25;3.95;;;1.00;;
25854;SDS011;13680;49.936;11.344;2023-07-13T06:35:51;3.08;;;0.80;;
25854;SDS011;13680;49.936;11.344;2023-07-13T06:38:16;4.30;;;1.15;;
25854;SDS011;13680;49.936;11.344;2023-07-13T06:40:41;4.95;;;1.00;;
25854;SDS011;13680;49.936;11.344;2023-07-13T06:43:07;2.38;;;0.75;;
25854;SDS011;13680;49.936;11.344;2023-07-13T06:45:39;11.15;;;1.13;;
25854;SDS011;13680;49.936;11.344;2023-07-13T06:48:06;6.43;;;1.38;;
25854;SDS011;13680;49.936;11.344;2023-07-13T06:50:32;3.10;;;1.00;;
25854;SDS011;13680;49.936;11.344;2023-07-13T06:52:58;3.92;;;1.30;;
25854;SDS011;13680;49.936;11.344;2023-07-13T06:55:24;3.97;;;1.00;;
25854;SDS011;13680;49.936;11.344;2023-07-13T06:57:50;5.95;;;1.15;;
25854;SDS011;13680;49.936;11.344;2023-07-13T07:00:16;4.18;;;1.08;;
25854;SDS011;13680;49.936;11.344;2023-07-13T07:02:41;3.90;;;1.00;;
25854;SDS011;13680;49.936;11.344;2023-07-13T07:05:06;4.35;;;1.20;;
25854;SDS011;13680;49.936;11.344;2023-07-13T07:07:32;4.40;;;1.08;;
25854;SDS011;13680;49.936;11.344;2023-07-13T07:09:57;4.85;;;1.10;;
25854;SDS011;13680;49.936;11.344;2023-07-13T07:12:22;4.45;;;1.20;;
25854;SDS011;13680;49.936;11.344;2023-07-13T07:14:47;5.03;;;1.27;;
25854;SDS011;13680;49.936;11.344;2023-07-13T07:17:13;3.70;;;1.20;;
25854;SDS011;13680;49.936;11.344;2023-07-13T07:19:38;6.40;;;1.10;;
25854;SDS011;13680;49.936;11.344;2023-07-13T07:22:03;6.40;;;1.27;;
25854;SDS011;13680;49.936;11.344;2023-07-13T07:24:29;6.72;;;1.30;;
25854;SDS011;13680;49.936;11.344;2023-07-13T07:26:54;4.13;;;1.25;;
25854;SDS011;13680;49.936;11.344;2023-07-13T07:29:19;4.53;;;1.10;;
25854;SDS011;13680;49.936;11.344;2023-07-13T07:31:45;9.00;;;1.20;;
25854;SDS011;13680;49.936;11.344;2023-07-13T07:34:10;7.50;;;1.98;;
25854;SDS011;13680;49.936;11.344;2023-07-13T07:36:36;2.70;;;1.20;;
25854;SDS011;13680;49.936;11.344;2023-07-13T07:39:01;5.10;;;1.48;;
25854;SDS011;13680;49.936;11.344;2023-07-13T07:41:26;4.93;;;0.98;;
25854;SDS011;13680;49.936;11.344;2023-07-13T07:43:52;3.45;;;1.00;;
25854;SDS011;13680;49.936;11.344;2023-07-13T07:46:17;6.88;;;1.25;;
25854;SDS011;13680;49.936;11.344;2023-07-13T07:48:42;3.10;;;0.98;;
25854;SDS011;13680;49.936;11.344;2023-07-13T07:51:08;4.53;;;1.10;;
25854;SDS011;13680;49.936;11.344;2023-07-13T07:53:33;4.35;;;1.00;;
25854;SDS011;13680;49.936;11.344;2023-07-13T07:55:58;3.67;;;1.25;;
25854;SDS011;13680;49.936;11.344;2023-07-13T07:58:24;3.67;;;0.98;;
25854;SDS011;13680;49.936;11.344;2023-07-13T08:00:50;11.30;;;1.83;;
25854;SDS011;13680;49.936;11.344;2023-07-13T08:03:16;5.13;;;1.38;;
25854;SDS011;13680;49.936;11.344;2023-07-13T08:05:41;5.82;;;1.20;;
25854;SDS011;13680;49.936;11.344;2023-07-13T08:08:06;6.32;;;1.45;;
25854;SDS011;13680;49.936;11.344;2023-07-13T08:10:31;11.88;;;1.02;;
25854;SDS011;13680;49.936;11.344;2023-07-13T08:12:59;2.72;;;1.17;;
25854;SDS011;13680;49.936;11.344;2023-07-13T08:15:25;11.30;;;1.35;;
25854;SDS011;13680;49.936;11.344;2023-07-13T08:17:50;3.55;;;1.20;;
25854;SDS011;13680;49.936;11.344;2023-07-13T08:20:15;4.60;;;1.02;;
25854;SDS011;13680;49.936;11.344;2023-07-13T08:22:41;3.15;;;0.85;;
25854;SDS011;13680;49.936;11.344;2023-07-13T08:25:06;6.60;;;1.30;;
25854;SDS011;13680;49.936;11.344;2023-07-13T08:27:32;3.55;;;1.30;;
25854;SDS011;13680;49.936;11.344;2023-07-13T08:29:57;4.97;;;1.20;;
25854;SDS011;13680;49.936;11.344;2023-07-13T08:32:23;7.75;;;1.88;;
25854;SDS011;13680;49.936;11.344;2023-07-13T08:34:49;7.45;;;1.23;;
25854;SDS011;13680;49.936;11.344;2023-07-13T08:37:14;3.70;;;1.02;;
25854;SDS011;13680;49.936;11.344;2023-07-13T08:39:40;7.18;;;1.20;;
25854;SDS011;13680;49.936;11.344;2023-07-13T08:42:29;5.93;;;1.40;;
25854;SDS011;13680;49.936;11.344;2023-07-13T08:47:22;8.52;;;1.60;;
25854;SDS011;13680;49.936;11.344;2023-07-13T08:49:49;3.80;;;1.00;;
25854;SDS011;13680;49.936;11.344;2023-07-13T08:52:28;3.60;;;1.27;;
25854;SDS011;13680;49.936;11.344;2023-07-13T08:55:06;6.15;;;1.13;;
25854;SDS011;13680;49.936;11.344;2023-07-13T08:57:38;7.38;;;1.30;;
25854;SDS011;13680;49.936;11.344;2023-07-13T09:00:10;4.13;;;1.20;;
25854;SDS011;13680;49.936;11.344;2023-07-13T09:02:45;6.40;;;1.45;;
25854;SDS011;13680;49.936;11.344;2023-07-13T09:10:19;5.05;;;1.00;;
25854;SDS011;13680;49.936;11.344;2023-07-13T09:15:35;1.00;;;0.60;;
25854;SDS011;13680;49.936;11.344;2023-07-13T09:18:10;3.95;;;0.93;;
25854;SDS011;13680;49.936;11.344;2023-07-13T09:20:54;5.15;;;0.88;;
25854;SDS011;13680;49.936;11.344;2023-07-13T09:23:24;8.88;;;1.00;;
25854;SDS011;13680;49.936;11.344;2023-07-13T09:25:55;9.30;;;1.30;;
25854;SDS011;13680;49.936;11.344;2023-07-13T09:28:27;2.38;;;0.75;;
25854;SDS011;13680;49.936;11.344;2023-07-13T09:33:28;2.15;;;0.60;;
25854;SDS011;13680;49.936;11.344;2023-07-13T09:35:55;2.17;;;0.63;;
25854;SDS011;13680;49.936;11.344;2023-07-13T09:38:25;5.85;;;0.70;;
25854;SDS011;13680;49.936;11.344;2023-07-13T09:40:59;2.75;;;0.52;;
25854;SDS011;13680;49.936;11.344;2023-07-13T09:46:52;2.40;;;0.60;;
25854;SDS011;13680;49.936;11.344;2023-07-13T09:49:23;3.83;;;0.70;;
25854;SDS011;13680;49.936;11.344;2023-07-13T09:51:50;4.63;;;0.65;;
25854;SDS011;13680;49.936;11.344;2023-07-13T09:54:25;3.58;;;0.80;;
25854;SDS011;13680;49.936;11.344;2023-07-13T09:56:57;1.90;;;0.70;;
25854;SDS011;13680;49.936;11.344;2023-07-13T09:59:26;3.92;;;0.80;;
25854;SDS011;13680;49.936;11.344;2023-07-13T10:01:54;4.50;;;0.90;;
25854;SDS011;13680;49.936;11.344;2023-07-13T10:04:27;5.43;;;0.80;;
25854;SDS011;13680;49.936;11.344;2023-07-13T10:07:12;2.10;;;0.82;;
25854;SDS011;13680;49.936;11.344;2023-07-13T10:09:40;1.30;;;0.63;;
25854;SDS011;13680;49.936;11.344;2023-07-13T10:12:15;4.82;;;0.82;;
25854;SDS011;13680;49.936;11.344;2023-07-13T10:14:41;2.25;;;0.68;;
25854;SDS011;13680;49.936;11.344;2023-07-13T10:17:12;2.63;;;0.60;;
25854;SDS011;13680;49.936;11.344;2023-07-13T10:19:38;4.47;;;0.65;;
25854;SDS011;13680;49.936;11.344;2023-07-13T10:22:19;4.38;;;0.68;;
25854;SDS011;13680;49.936;11.344;2023-07-13T10:24:51;2.25;;;0.82;;
25854;SDS011;13680;49.936;11.344;2023-07-13T10:27:17;1.67;;;0.60;;
25854;SDS011;13680;49.936;11.344;2023-07-13T10:29:46;4.40;;;0.90;;
25854;SDS011;13680;49.936;11.344;2023-07-13T10:32:16;2.88;;;0.95;;
25854;SDS011;13680;49.936;11.344;2023-07-13T10:34:46;5.15;;;0.93;;
25854;SDS011;13680;49.936;11.344;2023-07-13T10:37:16;7.85;;;0.80;;
25854;SDS011;13680;49.936;11.344;2023-07-13T10:40:04;3.05;;;0.65;;
25854;SDS011;13680;49.936;11.344;2023-07-13T10:42:40;3.13;;;0.68;;
25854;SDS011;13680;49.936;11.344;2023-07-13T10:45:28;7.30;;;0.80;;
25854;SDS011;13680;49.936;11.344;2023-07-13T10:47:58;1.60;;;0.60;;
25854;SDS011;13680;49.936;11.344;2023-07-13T10:50:25;2.30;;;0.80;;
25854;SDS011;13680;49.936;11.344;2023-07-13T10:52:53;4.53;;;0.60;;
25854;SDS011;13680;49.936;11.344;2023-07-13T11:03:38;2.05;;;0.73;;
25854;SDS011;13680;49.936;11.344;2023-07-13T11:06:15;4.93;;;0.77;;
25854;SDS011;13680;49.936;11.344;2023-07-13T11:08:56;4.22;;;0.70;;
25854;SDS011;13680;49.936;11.344;2023-07-13T11:18:47;1.65;;;0.60;;
25854;SDS011;13680;49.936;11.344;2023-07-13T11:21:15;6.03;;;0.70;;
25854;SDS011;13680;49.936;11.344;2023-07-13T11:23:44;4.03;;;0.82;;
25854;SDS011;13680;49.936;11.344;2023-07-13T11:29:20;4.95;;;0.80;;
25854;SDS011;13680;49.936;11.344;2023-07-13T11:32:22;3.00;;;0.75;;
25854;SDS011;13680;49.936;11.344;2023-07-13T11:34:51;1.02;;;0.60;;
25854;SDS011;13680;49.936;11.344;2023-07-13T11:37:19;7.15;;;0.90;;
25854;SDS011;13680;49.936;11.344;2023-07-13T11:39:45;2.92;;;0.77;;
25854;SDS011;13680;49.936;11.344;2023-07-13T11:42:13;3.15;;;0.80;;
25854;SDS011;13680;49.936;11.344;2023-07-13T11:44:42;5.95;;;0.90;;
25854;SDS011;13680;49.936;11.344;2023-07-13T11:47:19;1.88;;;0.70;;
25854;SDS011;13680;49.936;11.344;2023-07-13T11:49:51;10.57;;;1.27;;
25854;SDS011;13680;49.936;11.344;2023-07-13T11:52:26;4.20;;;0.85;;
25854;SDS011;13680;49.936;11.344;2023-07-13T11:55:02;2.08;;;0.80;;
25854;SDS011;13680;49.936;11.344;2023-07-13T11:57:40;1.95;;;0.73;;
25854;SDS011;13680;49.936;11.344;2023-07-13T12:00:14;7.15;;;0.95;;
25854;SDS011;13680;49.936;11.344;2023-07-13T12:02:45;4.90;;;0.77;;
25854;SDS011;13680;49.936;11.344;2023-07-13T12:05:14;2.00;;;0.80;;
25854;SDS011;13680;49.936;11.344;2023-07-13T12:07:42;9.48;;;0.82;;
25854;SDS011;13680;49.936;11.344;2023-07-13T12:10:15;2.63;;;0.77;;
25854;SDS011;13680;49.936;11.344;2023-07-13T12:12:56;2.28;;;1.00;;
25854;SDS011;13680;49.936;11.344;2023-07-13T12:15:37;2.08;;;0.73;;
25854;SDS011;13680;49.936;11.344;2023-07-13T12:18:13;3.47;;;0.77;;
25854;SDS011;13680;49.936;11.344;2023-07-13T12:20:41;1.42;;;0.75;;
25854;SDS011;13680;49.936;11.344;2023-07-13T12:23:10;6.63;;;1.05;;
25854;SDS011;13680;49.936;11.344;2023-07-13T12:25:48;4.68;;;0.95;;
25854;SDS011;13680;49.936;11.344;2023-07-13T12:31:36;5.03;;;1.15;;
25854;SDS011;13680;49.936;11.344;2023-07-13T12:34:12;4.85;;;0.95;;
25854;SDS011;13680;49.936;11.344;2023-07-13T12:37:00;2.85;;;0.85;;
25854;SDS011;13680;49.936;11.344;2023-07-13T12:45:14;5.28;;;0.90;;
25854;SDS011;13680;49.936;11.344;2023-07-13T12:47:54;3.15;;;0.80;;
25854;SDS011;13680;49.936;11.344;2023-07-13T12:50:29;7.00;;;1.15;;
25854;SDS011;13680;49.936;11.344;2023-07-13T12:52:59;6.97;;;1.17;;
25854;SDS011;13680;49.936;11.344;2023-07-13T12:55:28;4.18;;;1.08;;
25854;SDS011;13680;49.936;11.344;2023-07-13T12:57:57;4.53;;;1.00;;
25854;SDS011;13680;49.936;11.344;2023-07-13T13:03:04;6.88;;;1.05;;
25854;SDS011;13680;49.936;11.344;2023-07-13T13:05:32;2.28;;;0.80;;
25854;SDS011;13680;49.936;11.344;2023-07-13T13:07:58;5.57;;;1.00;;
25854;SDS011;13680;49.936;11.344;2023-07-13T13:10:25;2.80;;;0.95;;
25854;SDS011;13680;49.936;11.344;2023-07-13T13:12:51;2.17;;;0.93;;
25854;SDS011;13680;49.936;11.344;2023-07-13T13:15:17;3.63;;;1.00;;
25854;SDS011;13680;49.936;11.344;2023-07-13T13:17:42;6.07;;;1.00;;
25854;SDS011;13680;49.936;11.344;2023-07-13T13:22:43;2.85;;;1.15;;
25854;SDS011;13680;49.936;11.344;2023-07-13T13:25:10;4.43;;;1.20;;
25854;SDS011;13680;49.936;11.344;2023-07-13T13:27:36;5.85;;;1.25;;
25854;SDS011;13680;49.936;11.344;2023-07-13T13:30:02;7.03;;;1.00;;
25854;SDS011;13680;49.936;11.344;2023-07-13T13:32:27;3.90;;;0.73;;
25854;SDS011;13680;49.936;11.344;2023-07-13T13:34:53;6.35;;;1.20;;
25854;SDS011;13680;49.936;11.344;2023-07-13T13:37:20;4.40;;;1.33;;
25854;SDS011;13680;49.936;11.344;2023-07-13T13:39:47;1.77;;;0.82;;
25854;SDS011;13680;49.936;11.344;2023-07-13T13:42:13;7.40;;;1.00;;
25854;SDS011;13680;49.936;11.344;2023-07-13T13:44:39;4.38;;;0.98;;
25854;SDS011;13680;49.936;11.344;2023-07-13T13:47:17;5.43;;;1.00;;
25854;SDS011;13680;49.936;11.344;2023-07-13T13:49:52;2.58;;;1.00;;
25854;SDS011;13680;49.936;11.344;2023-07-13T13:52:18;3.95;;;1.05;;
25854;SDS011;13680;49.936;11.344;2023-07-13T13:54:43;1.98;;;0.80;;
25854;SDS011;13680;49.936;11.344;2023-07-13T13:57:09;2.15;;;1.20;;
25854;SDS011;13680;49.936;11.344;2023-07-13T13:59:37;3.92;;;1.10;;
25854;SDS011;13680;49.936;11.344;2023-07-13T14:02:11;3.25;;;1.02;;
25854;SDS011;13680;49.936;11.344;2023-07-13T14:04:49;4.93;;;1.20;;
25854;SDS011;13680;49.936;11.344;2023-07-13T14:07:19;11.15;;;1.35;;
25854;SDS011;13680;49.936;11.344;2023-07-13T14:09:44;24.58;;;2.30;;
25854;SDS011;13680;49.936;11.344;2023-07-13T14:12:10;16.35;;;2.58;;
25854;SDS011;13680;49.936;11.344;2023-07-13T14:14:36;10.52;;;1.10;;
25854;SDS011;13680;49.936;11.344;2023-07-13T14:17:02;12.00;;;1.50;;
25854;SDS011;13680;49.936;11.344;2023-07-13T14:19:28;3.25;;;1.00;;
25854;SDS011;13680;49.936;11.344;2023-07-13T14:21:54;5.28;;;1.00;;
25854;SDS011;13680;49.936;11.344;2023-07-13T14:24:19;3.47;;;1.00;;
25854;SDS011;13680;49.936;11.344;2023-07-13T14:26:45;5.80;;;1.08;;
25854;SDS011;13680;49.936;11.344;2023-07-13T14:29:12;5.25;;;1.30;;
25854;SDS011;13680;49.936;11.344;2023-07-13T14:31:40;5.95;;;0.95;;
25854;SDS011;13680;49.936;11.344;2023-07-13T14:34:05;8.68;;;1.20;;
25854;SDS011;13680;49.936;11.344;2023-07-13T14:36:33;9.68;;;1.40;;
25854;SDS011;13680;49.936;11.344;2023-07-13T14:39:09;4.50;;;1.00;;
25854;SDS011;13680;49.936;11.344;2023-07-13T14:41:37;6.88;;;1.05;;
25854;SDS011;13680;49.936;11.344;2023-07-13T14:44:08;3.17;;;1.10;;
25854;SDS011;13680;49.936;11.344;2023-07-13T14:46:36;3.17;;;0.82;;
25854;SDS011;13680;49.936;11.344;2023-07-13T14:49:06;2.88;;;0.90;;
25854;SDS011;13680;49.936;11.344;2023-07-13T14:51:58;6.40;;;1.17;;
25854;SDS011;13680;49.936;11.344;2023-07-13T14:54:26;6.47;;;1.00;;
25854;SDS011;13680;49.936;11.344;2023-07-13T14:56:51;4.50;;;1.20;;
25854;SDS011;13680;49.936;11.344;2023-07-13T14:59:17;9.43;;;1.17;;
25854;SDS011;13680;49.936;11.344;2023-07-13T15:01:45;2.65;;;0.82;;
25854;SDS011;13680;49.936;11.344;2023-07-13T15:04:13;1.67;;;0.82;;
25854;SDS011;13680;49.936;11.344;2023-07-13T15:06:58;4.57;;;1.13;;
25854;SDS011;13680;49.936;11.344;2023-07-13T15:09:25;4.60;;;1.30;;
25854;SDS011;13680;49.936;11.344;2023-07-13T15:11:57;2.25;;;0.90;;
25854;SDS011;13680;49.936;11.344;2023-07-13T15:14:24;7.28;;;1.30;;
25854;SDS011;13680;49.936;11.344;2023-07-13T15:16:51;8.45;;;1.40;;
25854;SDS011;13680;49.936;11.344;2023-07-13T15:19:18;3.70;;;1.00;;
25854;SDS011;13680;49.936;11.344;2023-07-13T15:21:44;4.25;;;0.95;;
25854;SDS011;13680;49.936;11.344;2023-07-13T15:24:10;2.67;;;1.02;;
25854;SDS011;13680;49.936;11.344;2023-07-13T15:26:35;2.90;;;1.02;;
25854;SDS011;13680;49.936;11.344;2023-07-13T15:29:01;3.65;;;1.02;;